SBOSBO DUB / EIDW
Speedbird OnlineSpeedbird Online DUB / EIDW

Dublin Airport
12:38 14.8°C

Location Dublin, Ireland
Latitude: 53.421299
Longitude: -6.27007
Altitude 74 Meter / 242 Feet
Distance 483 KM / 300 Miles
from London.
Time Zone UTC +1 hours (Europe/Dublin)
Codes IATA: DUB
ICAO: EIDW
Currency £1 equals EUR 1.16
METAR EIDW 271100Z 24009KT 210V280 9999 FEW018 SCT060 14/05 Q1012 NOSIG
TAF TAF EIDW 271100Z 2712/2812 22010KT 9999 FEW012 SCT045 BECMG 2720/2722 19010KT -RA BECMG 2803/2805 16013KT PROB40 TEMPO 2803/2809 5000 BKN012 TEMPO 2806/2812 16015G25KT PROB40 TEMPO 2809/2812 4000 RA BKN012 SCT018CB
Weather As Of 27 Jun 2022 12:38
Description Scattered clouds
Wind 17 km/h from South-West (240°)
Cloud Cover 40%
Precipitation Rain: none, Snow: none
Sunrise 04:58
Sunset 21:57
Lounges The East Lounge , 1
Dublin Airport Executive Lounge, Main Departures Area
51st & Green US Pre-Clearance Lounge, Terminal 2
Rotations During the last 90 days there were
378 flights from LHR
336 flights from LCY
6 flights from SOU
1 flights from LGW
380 flights to LHR
299 flights to LCY
7 flights to SOU


© 2017-2022 Speedbird Online